sensor_id;sensor_type;location;lat;lon;timestamp;P1;durP1;ratioP1;P2;durP2;ratioP2
73239;SDS011;61452;40.054;4.110;2023-02-26T00:02:17;4.20;;;1.00;;
73239;SDS011;61452;40.054;4.110;2023-02-26T00:07:19;5.57;;;1.25;;
73239;SDS011;61452;40.054;4.110;2023-02-26T00:12:22;5.75;;;1.75;;
73239;SDS011;61452;40.054;4.110;2023-02-26T00:22:58;5.85;;;1.10;;
73239;SDS011;61452;40.054;4.110;2023-02-26T00:28:01;4.28;;;0.77;;
73239;SDS011;61452;40.054;4.110;2023-02-26T00:33:03;3.55;;;0.90;;
73239;SDS011;61452;40.054;4.110;2023-02-26T00:38:08;6.55;;;1.17;;
73239;SDS011;61452;40.054;4.110;2023-02-26T00:43:14;10.95;;;2.20;;
73239;SDS011;61452;40.054;4.110;2023-02-26T00:53:43;4.53;;;1.08;;
73239;SDS011;61452;40.054;4.110;2023-02-26T00:58:52;2.58;;;1.00;;
73239;SDS011;61452;40.054;4.110;2023-02-26T01:03:55;3.00;;;0.90;;
73239;SDS011;61452;40.054;4.110;2023-02-26T01:14:14;4.85;;;1.05;;
73239;SDS011;61452;40.054;4.110;2023-02-26T01:19:19;3.97;;;1.20;;
73239;SDS011;61452;40.054;4.110;2023-02-26T01:24:30;3.65;;;1.23;;
73239;SDS011;61452;40.054;4.110;2023-02-26T01:29:35;4.63;;;1.00;;
73239;SDS011;61452;40.054;4.110;2023-02-26T01:34:54;3.58;;;1.10;;
73239;SDS011;61452;40.054;4.110;2023-02-26T01:45:33;4.85;;;1.10;;
73239;SDS011;61452;40.054;4.110;2023-02-26T01:50:38;6.25;;;1.17;;
73239;SDS011;61452;40.054;4.110;2023-02-26T01:55:41;7.30;;;1.63;;
73239;SDS011;61452;40.054;4.110;2023-02-26T02:00:46;3.58;;;1.10;;
73239;SDS011;61452;40.054;4.110;2023-02-26T02:05:55;6.00;;;1.40;;
73239;SDS011;61452;40.054;4.110;2023-02-26T02:11:05;5.57;;;1.05;;
73239;SDS011;61452;40.054;4.110;2023-02-26T02:16:19;5.03;;;1.13;;
73239;SDS011;61452;40.054;4.110;2023-02-26T02:21:37;6.55;;;1.35;;
73239;SDS011;61452;40.054;4.110;2023-02-26T02:26:57;4.65;;;0.93;;
73239;SDS011;61452;40.054;4.110;2023-02-26T02:43:15;3.17;;;0.90;;
73239;SDS011;61452;40.054;4.110;2023-02-26T02:48:05;3.92;;;1.05;;
73239;SDS011;61452;40.054;4.110;2023-02-26T02:53:21;3.72;;;1.08;;
73239;SDS011;61452;40.054;4.110;2023-02-26T02:58:41;4.88;;;0.95;;
73239;SDS011;61452;40.054;4.110;2023-02-26T03:09:05;5.07;;;1.15;;
73239;SDS011;61452;40.054;4.110;2023-02-26T03:14:08;3.08;;;1.05;;
73239;SDS011;61452;40.054;4.110;2023-02-26T03:34:33;4.05;;;1.13;;
73239;SDS011;61452;40.054;4.110;2023-02-26T03:39:44;4.93;;;1.13;;
73239;SDS011;61452;40.054;4.110;2023-02-26T03:44:57;4.70;;;1.25;;
73239;SDS011;61452;40.054;4.110;2023-02-26T03:50:14;6.35;;;1.13;;
73239;SDS011;61452;40.054;4.110;2023-02-26T03:55:29;4.68;;;1.00;;
73239;SDS011;61452;40.054;4.110;2023-02-26T04:01:00;3.28;;;0.90;;
73239;SDS011;61452;40.054;4.110;2023-02-26T04:06:16;5.07;;;1.00;;
73239;SDS011;61452;40.054;4.110;2023-02-26T04:11:20;4.97;;;1.35;;
73239;SDS011;61452;40.054;4.110;2023-02-26T04:21:26;6.47;;;0.90;;
73239;SDS011;61452;40.054;4.110;2023-02-26T04:26:28;2.47;;;0.88;;
73239;SDS011;61452;40.054;4.110;2023-02-26T04:31:30;4.97;;;0.90;;
73239;SDS011;61452;40.054;4.110;2023-02-26T04:36:33;3.65;;;1.20;;
73239;SDS011;61452;40.054;4.110;2023-02-26T04:41:36;3.15;;;1.00;;
73239;SDS011;61452;40.054;4.110;2023-02-26T04:46:38;2.28;;;1.20;;
73239;SDS011;61452;40.054;4.110;2023-02-26T04:51:41;7.57;;;1.20;;
73239;SDS011;61452;40.054;4.110;2023-02-26T04:56:45;4.63;;;1.00;;
73239;SDS011;61452;40.054;4.110;2023-02-26T05:01:47;5.20;;;1.02;;
73239;SDS011;61452;40.054;4.110;2023-02-26T05:06:49;4.55;;;0.80;;
73239;SDS011;61452;40.054;4.110;2023-02-26T05:11:53;4.15;;;0.80;;
73239;SDS011;61452;40.054;4.110;2023-02-26T05:16:56;5.32;;;0.90;;
73239;SDS011;61452;40.054;4.110;2023-02-26T05:21:58;5.07;;;1.35;;
73239;SDS011;61452;40.054;4.110;2023-02-26T05:27:00;3.38;;;0.88;;
73239;SDS011;61452;40.054;4.110;2023-02-26T05:32:04;2.88;;;0.88;;
73239;SDS011;61452;40.054;4.110;2023-02-26T05:37:06;3.80;;;1.02;;
73239;SDS011;61452;40.054;4.110;2023-02-26T05:42:09;4.93;;;1.02;;
73239;SDS011;61452;40.054;4.110;2023-02-26T05:47:11;3.20;;;1.23;;
73239;SDS011;61452;40.054;4.110;2023-02-26T05:52:13;3.78;;;1.05;;
73239;SDS011;61452;40.054;4.110;2023-02-26T05:57:15;3.22;;;1.00;;
73239;SDS011;61452;40.054;4.110;2023-02-26T06:02:18;3.33;;;0.75;;
73239;SDS011;61452;40.054;4.110;2023-02-26T06:07:20;5.32;;;1.10;;
73239;SDS011;61452;40.054;4.110;2023-02-26T06:12:22;3.97;;;1.00;;
73239;SDS011;61452;40.054;4.110;2023-02-26T06:17:24;4.72;;;0.90;;
73239;SDS011;61452;40.054;4.110;2023-02-26T06:22:27;4.47;;;0.80;;
73239;SDS011;61452;40.054;4.110;2023-02-26T06:27:30;3.53;;;1.10;;
73239;SDS011;61452;40.054;4.110;2023-02-26T06:32:32;3.63;;;1.00;;
73239;SDS011;61452;40.054;4.110;2023-02-26T06:37:34;2.72;;;1.35;;
73239;SDS011;61452;40.054;4.110;2023-02-26T06:42:37;3.58;;;1.08;;
73239;SDS011;61452;40.054;4.110;2023-02-26T06:47:39;2.78;;;1.42;;
73239;SDS011;61452;40.054;4.110;2023-02-26T06:52:41;4.57;;;1.52;;
73239;SDS011;61452;40.054;4.110;2023-02-26T06:57:43;2.67;;;0.90;;
73239;SDS011;61452;40.054;4.110;2023-02-26T07:02:45;4.32;;;1.08;;
73239;SDS011;61452;40.054;4.110;2023-02-26T07:07:48;3.35;;;1.48;;
73239;SDS011;61452;40.054;4.110;2023-02-26T07:12:50;1.67;;;1.10;;
73239;SDS011;61452;40.054;4.110;2023-02-26T07:17:52;4.82;;;1.08;;
73239;SDS011;61452;40.054;4.110;2023-02-26T07:22:54;3.88;;;0.80;;
73239;SDS011;61452;40.054;4.110;2023-02-26T07:27:57;4.45;;;1.15;;
73239;SDS011;61452;40.054;4.110;2023-02-26T07:33:00;5.00;;;1.27;;
73239;SDS011;61452;40.054;4.110;2023-02-26T07:38:02;5.78;;;1.00;;
73239;SDS011;61452;40.054;4.110;2023-02-26T07:43:04;3.65;;;1.05;;
73239;SDS011;61452;40.054;4.110;2023-02-26T07:48:07;2.55;;;0.73;;
73239;SDS011;61452;40.054;4.110;2023-02-26T07:53:09;4.57;;;1.25;;
73239;SDS011;61452;40.054;4.110;2023-02-26T07:58:11;3.33;;;1.08;;
73239;SDS011;61452;40.054;4.110;2023-02-26T08:03:14;4.20;;;1.15;;
73239;SDS011;61452;40.054;4.110;2023-02-26T08:08:16;2.13;;;0.80;;
73239;SDS011;61452;40.054;4.110;2023-02-26T08:13:19;3.80;;;1.00;;
73239;SDS011;61452;40.054;4.110;2023-02-26T08:18:21;4.20;;;0.85;;
73239;SDS011;61452;40.054;4.110;2023-02-26T08:23:23;5.15;;;1.10;;
73239;SDS011;61452;40.054;4.110;2023-02-26T08:28:27;4.95;;;1.08;;
73239;SDS011;61452;40.054;4.110;2023-02-26T08:33:29;3.10;;;1.00;;
73239;SDS011;61452;40.054;4.110;2023-02-26T08:38:32;6.28;;;1.10;;
73239;SDS011;61452;40.054;4.110;2023-02-26T08:43:34;4.45;;;1.10;;
73239;SDS011;61452;40.054;4.110;2023-02-26T08:48:37;2.50;;;1.02;;
73239;SDS011;61452;40.054;4.110;2023-02-26T08:53:39;3.95;;;0.95;;
73239;SDS011;61452;40.054;4.110;2023-02-26T08:58:42;3.85;;;1.00;;
73239;SDS011;61452;40.054;4.110;2023-02-26T09:03:44;3.83;;;0.82;;
73239;SDS011;61452;40.054;4.110;2023-02-26T09:08:47;2.88;;;0.88;;
73239;SDS011;61452;40.054;4.110;2023-02-26T09:13:49;5.32;;;1.38;;
73239;SDS011;61452;40.054;4.110;2023-02-26T09:18:52;3.17;;;0.80;;
73239;SDS011;61452;40.054;4.110;2023-02-26T09:23:54;1.83;;;0.70;;
73239;SDS011;61452;40.054;4.110;2023-02-26T09:28:56;2.78;;;0.90;;
73239;SDS011;61452;40.054;4.110;2023-02-26T09:33:58;2.88;;;0.80;;
73239;SDS011;61452;40.054;4.110;2023-02-26T09:39:00;2.30;;;0.63;;
73239;SDS011;61452;40.054;4.110;2023-02-26T09:44:19;2.95;;;1.05;;
73239;SDS011;61452;40.054;4.110;2023-02-26T09:54:49;3.70;;;0.82;;
73239;SDS011;61452;40.054;4.110;2023-02-26T09:59:54;2.40;;;0.70;;
73239;SDS011;61452;40.054;4.110;2023-02-26T10:15:36;5.32;;;1.38;;
73239;SDS011;61452;40.054;4.110;2023-02-26T10:20:45;2.35;;;0.70;;
73239;SDS011;61452;40.054;4.110;2023-02-26T10:26:04;1.70;;;0.75;;
73239;SDS011;61452;40.054;4.110;2023-02-26T10:31:15;4.20;;;1.00;;
73239;SDS011;61452;40.054;4.110;2023-02-26T10:36:27;2.22;;;0.90;;
73239;SDS011;61452;40.054;4.110;2023-02-26T10:41:32;6.22;;;1.08;;
73239;SDS011;61452;40.054;4.110;2023-02-26T10:51:53;3.58;;;0.90;;
73239;SDS011;61452;40.054;4.110;2023-02-26T10:56:57;2.47;;;0.77;;
73239;SDS011;61452;40.054;4.110;2023-02-26T11:01:59;4.13;;;1.20;;
73239;SDS011;61452;40.054;4.110;2023-02-26T11:07:02;3.75;;;0.82;;
73239;SDS011;61452;40.054;4.110;2023-02-26T11:12:13;5.70;;;1.00;;
73239;SDS011;61452;40.054;4.110;2023-02-26T11:17:17;3.75;;;0.85;;
73239;SDS011;61452;40.054;4.110;2023-02-26T11:22:30;3.40;;;0.88;;
73239;SDS011;61452;40.054;4.110;2023-02-26T11:27:35;6.18;;;1.00;;
73239;SDS011;61452;40.054;4.110;2023-02-26T11:32:39;6.43;;;1.27;;
73239;SDS011;61452;40.054;4.110;2023-02-26T11:37:45;6.35;;;1.42;;
73239;SDS011;61452;40.054;4.110;2023-02-26T11:42:54;5.78;;;1.88;;
73239;SDS011;61452;40.054;4.110;2023-02-26T11:48:04;6.28;;;1.42;;
73239;SDS011;61452;40.054;4.110;2023-02-26T11:53:18;7.25;;;1.30;;
73239;SDS011;61452;40.054;4.110;2023-02-26T11:58:27;3.40;;;1.40;;
73239;SDS011;61452;40.054;4.110;2023-02-26T12:03:32;6.78;;;1.85;;
73239;SDS011;61452;40.054;4.110;2023-02-26T12:08:40;9.30;;;2.00;;
73239;SDS011;61452;40.054;4.110;2023-02-26T12:19:29;8.18;;;1.92;;
73239;SDS011;61452;40.054;4.110;2023-02-26T12:35:42;10.75;;;2.00;;
73239;SDS011;61452;40.054;4.110;2023-02-26T12:41:55;7.05;;;1.98;;
73239;SDS011;61452;40.054;4.110;2023-02-26T13:13:26;6.82;;;1.60;;
73239;SDS011;61452;40.054;4.110;2023-02-26T13:18:42;8.77;;;1.80;;
73239;SDS011;61452;40.054;4.110;2023-02-26T13:24:05;5.00;;;1.80;;
73239;SDS011;61452;40.054;4.110;2023-02-26T13:29:22;7.93;;;1.70;;
73239;SDS011;61452;40.054;4.110;2023-02-26T13:34:32;5.22;;;1.48;;
73239;SDS011;61452;40.054;4.110;2023-02-26T13:39:46;7.57;;;2.13;;
73239;SDS011;61452;40.054;4.110;2023-02-26T13:45:18;9.15;;;2.45;;
73239;SDS011;61452;40.054;4.110;2023-02-26T13:56:15;8.57;;;2.08;;
73239;SDS011;61452;40.054;4.110;2023-02-26T14:06:40;5.90;;;1.35;;
73239;SDS011;61452;40.054;4.110;2023-02-26T14:11:45;10.63;;;1.90;;
73239;SDS011;61452;40.054;4.110;2023-02-26T14:32:13;6.53;;;1.55;;
73239;SDS011;61452;40.054;4.110;2023-02-26T14:37:24;7.65;;;1.80;;
73239;SDS011;61452;40.054;4.110;2023-02-26T14:48:00;6.07;;;1.70;;
73239;SDS011;61452;40.054;4.110;2023-02-26T14:58:40;5.72;;;2.10;;
73239;SDS011;61452;40.054;4.110;2023-02-26T15:09:23;5.80;;;2.20;;
73239;SDS011;61452;40.054;4.110;2023-02-26T15:25:48;6.43;;;1.70;;
73239;SDS011;61452;40.054;4.110;2023-02-26T15:30:51;8.32;;;1.83;;
73239;SDS011;61452;40.054;4.110;2023-02-26T15:35:55;8.23;;;2.33;;
73239;SDS011;61452;40.054;4.110;2023-02-26T15:40:59;7.43;;;2.00;;
73239;SDS011;61452;40.054;4.110;2023-02-26T15:46:04;8.23;;;1.50;;
73239;SDS011;61452;40.054;4.110;2023-02-26T15:51:08;7.85;;;1.90;;
73239;SDS011;61452;40.054;4.110;2023-02-26T15:56:17;9.02;;;1.98;;
73239;SDS011;61452;40.054;4.110;2023-02-26T16:01:23;10.60;;;2.03;;
73239;SDS011;61452;40.054;4.110;2023-02-26T16:06:40;8.75;;;1.70;;
73239;SDS011;61452;40.054;4.110;2023-02-26T16:11:46;9.25;;;2.00;;
73239;SDS011;61452;40.054;4.110;2023-02-26T16:16:51;7.13;;;1.98;;
73239;SDS011;61452;40.054;4.110;2023-02-26T16:21:56;9.20;;;2.35;;
73239;SDS011;61452;40.054;4.110;2023-02-26T16:27:03;8.27;;;2.13;;
73239;SDS011;61452;40.054;4.110;2023-02-26T16:32:09;7.70;;;1.85;;
73239;SDS011;61452;40.054;4.110;2023-02-26T16:43:28;6.38;;;1.75;;
73239;SDS011;61452;40.054;4.110;2023-02-26T16:48:08;6.00;;;1.52;;
73239;SDS011;61452;40.054;4.110;2023-02-26T16:53:16;7.55;;;1.23;;
73239;SDS011;61452;40.054;4.110;2023-02-26T16:58:20;6.93;;;1.80;;
73239;SDS011;61452;40.054;4.110;2023-02-26T17:03:25;6.55;;;1.55;;
73239;SDS011;61452;40.054;4.110;2023-02-26T17:08:31;3.67;;;1.13;;
73239;SDS011;61452;40.054;4.110;2023-02-26T17:13:37;5.13;;;1.52;;
73239;SDS011;61452;40.054;4.110;2023-02-26T17:18:39;5.65;;;1.35;;
73239;SDS011;61452;40.054;4.110;2023-02-26T17:23:41;3.65;;;1.23;;
73239;SDS011;61452;40.054;4.110;2023-02-26T17:28:44;3.80;;;1.50;;
73239;SDS011;61452;40.054;4.110;2023-02-26T17:33:46;5.70;;;1.35;;
73239;SDS011;61452;40.054;4.110;2023-02-26T17:38:48;4.25;;;1.77;;
73239;SDS011;61452;40.054;4.110;2023-02-26T17:43:51;7.90;;;2.55;;
73239;SDS011;61452;40.054;4.110;2023-02-26T17:48:53;6.93;;;2.03;;
73239;SDS011;61452;40.054;4.110;2023-02-26T17:53:55;5.45;;;1.38;;
73239;SDS011;61452;40.054;4.110;2023-02-26T17:58:57;7.28;;;1.45;;
73239;SDS011;61452;40.054;4.110;2023-02-26T18:04:01;5.30;;;1.50;;
73239;SDS011;61452;40.054;4.110;2023-02-26T18:09:04;4.57;;;1.48;;
73239;SDS011;61452;40.054;4.110;2023-02-26T18:14:07;5.72;;;1.48;;
73239;SDS011;61452;40.054;4.110;2023-02-26T18:19:11;9.07;;;1.90;;
73239;SDS011;61452;40.054;4.110;2023-02-26T18:24:14;5.43;;;1.88;;
73239;SDS011;61452;40.054;4.110;2023-02-26T18:29:16;9.90;;;1.92;;
73239;SDS011;61452;40.054;4.110;2023-02-26T18:34:19;8.23;;;1.77;;
73239;SDS011;61452;40.054;4.110;2023-02-26T18:39:21;10.55;;;2.47;;
73239;SDS011;61452;40.054;4.110;2023-02-26T18:44:25;10.27;;;2.42;;
73239;SDS011;61452;40.054;4.110;2023-02-26T18:49:29;10.07;;;2.35;;
73239;SDS011;61452;40.054;4.110;2023-02-26T18:54:31;10.02;;;2.55;;
73239;SDS011;61452;40.054;4.110;2023-02-26T18:59:33;11.35;;;2.47;;
73239;SDS011;61452;40.054;4.110;2023-02-26T19:04:35;16.25;;;2.67;;
73239;SDS011;61452;40.054;4.110;2023-02-26T19:09:38;11.80;;;1.88;;
73239;SDS011;61452;40.054;4.110;2023-02-26T19:14:41;6.75;;;1.95;;
73239;SDS011;61452;40.054;4.110;2023-02-26T19:19:43;8.10;;;2.17;;
73239;SDS011;61452;40.054;4.110;2023-02-26T19:24:45;11.82;;;2.65;;
73239;SDS011;61452;40.054;4.110;2023-02-26T19:29:47;12.23;;;2.50;;
73239;SDS011;61452;40.054;4.110;2023-02-26T19:34:49;11.85;;;2.40;;
73239;SDS011;61452;40.054;4.110;2023-02-26T19:39:51;8.13;;;2.35;;
73239;SDS011;61452;40.054;4.110;2023-02-26T19:44:54;15.30;;;3.03;;
73239;SDS011;61452;40.054;4.110;2023-02-26T19:49:56;20.45;;;3.42;;
73239;SDS011;61452;40.054;4.110;2023-02-26T19:54:58;10.98;;;2.10;;
73239;SDS011;61452;40.054;4.110;2023-02-26T20:00:01;8.02;;;2.10;;
73239;SDS011;61452;40.054;4.110;2023-02-26T20:05:12;8.27;;;2.40;;
73239;SDS011;61452;40.054;4.110;2023-02-26T20:10:17;14.95;;;2.90;;
73239;SDS011;61452;40.054;4.110;2023-02-26T20:15:20;17.00;;;3.38;;
73239;SDS011;61452;40.054;4.110;2023-02-26T20:20:22;14.30;;;3.75;;
73239;SDS011;61452;40.054;4.110;2023-02-26T20:25:24;12.48;;;3.58;;
73239;SDS011;61452;40.054;4.110;2023-02-26T20:30:26;12.15;;;3.17;;
73239;SDS011;61452;40.054;4.110;2023-02-26T20:35:29;15.80;;;3.92;;
73239;SDS011;61452;40.054;4.110;2023-02-26T20:40:32;21.27;;;4.03;;
73239;SDS011;61452;40.054;4.110;2023-02-26T20:45:37;15.45;;;4.30;;
73239;SDS011;61452;40.054;4.110;2023-02-26T20:50:40;14.25;;;3.13;;
73239;SDS011;61452;40.054;4.110;2023-02-26T20:55:42;17.05;;;3.55;;
73239;SDS011;61452;40.054;4.110;2023-02-26T21:00:44;13.23;;;2.80;;
73239;SDS011;61452;40.054;4.110;2023-02-26T21:05:47;16.13;;;3.92;;
73239;SDS011;61452;40.054;4.110;2023-02-26T21:10:50;24.35;;;3.90;;
73239;SDS011;61452;40.054;4.110;2023-02-26T21:15:52;18.77;;;3.65;;
73239;SDS011;61452;40.054;4.110;2023-02-26T21:20:54;27.23;;;4.25;;
73239;SDS011;61452;40.054;4.110;2023-02-26T21:25:56;15.77;;;3.30;;
73239;SDS011;61452;40.054;4.110;2023-02-26T21:30:59;18.15;;;3.55;;
73239;SDS011;61452;40.054;4.110;2023-02-26T21:36:01;16.08;;;3.85;;
73239;SDS011;61452;40.054;4.110;2023-02-26T21:41:04;18.63;;;4.50;;
73239;SDS011;61452;40.054;4.110;2023-02-26T21:46:06;15.82;;;3.80;;
73239;SDS011;61452;40.054;4.110;2023-02-26T21:51:08;19.08;;;4.07;;
73239;SDS011;61452;40.054;4.110;2023-02-26T21:56:10;15.85;;;3.75;;
73239;SDS011;61452;40.054;4.110;2023-02-26T22:01:12;21.52;;;4.10;;
73239;SDS011;61452;40.054;4.110;2023-02-26T22:06:15;17.33;;;4.00;;
73239;SDS011;61452;40.054;4.110;2023-02-26T22:11:18;19.58;;;3.58;;
73239;SDS011;61452;40.054;4.110;2023-02-26T22:16:20;18.15;;;5.32;;
73239;SDS011;61452;40.054;4.110;2023-02-26T22:21:23;14.98;;;3.55;;
73239;SDS011;61452;40.054;4.110;2023-02-26T22:26:25;17.95;;;3.97;;
73239;SDS011;61452;40.054;4.110;2023-02-26T22:31:28;16.73;;;4.60;;
73239;SDS011;61452;40.054;4.110;2023-02-26T22:36:32;13.63;;;4.35;;
73239;SDS011;61452;40.054;4.110;2023-02-26T22:41:36;15.77;;;3.92;;
73239;SDS011;61452;40.054;4.110;2023-02-26T22:46:39;18.65;;;4.40;;
73239;SDS011;61452;40.054;4.110;2023-02-26T22:51:41;15.68;;;3.63;;
73239;SDS011;61452;40.054;4.110;2023-02-26T22:56:43;16.35;;;4.00;;
73239;SDS011;61452;40.054;4.110;2023-02-26T23:01:45;22.67;;;4.07;;
73239;SDS011;61452;40.054;4.110;2023-02-26T23:06:48;14.32;;;4.28;;
73239;SDS011;61452;40.054;4.110;2023-02-26T23:11:50;19.73;;;4.50;;
73239;SDS011;61452;40.054;4.110;2023-02-26T23:16:52;17.25;;;4.43;;
73239;SDS011;61452;40.054;4.110;2023-02-26T23:21:55;19.10;;;4.30;;
73239;SDS011;61452;40.054;4.110;2023-02-26T23:26:57;16.33;;;4.45;;
73239;SDS011;61452;40.054;4.110;2023-02-26T23:31:59;12.38;;;3.47;;
73239;SDS011;61452;40.054;4.110;2023-02-26T23:37:02;18.98;;;3.85;;
73239;SDS011;61452;40.054;4.110;2023-02-26T23:42:04;22.20;;;4.82;;
73239;SDS011;61452;40.054;4.110;2023-02-26T23:47:06;15.80;;;3.85;;
73239;SDS011;61452;40.054;4.110;2023-02-26T23:52:09;19.60;;;5.20;;
73239;SDS011;61452;40.054;4.110;2023-02-26T23:57:11;18.23;;;4.70;;
